sensor_id;sensor_type;location;lat;lon;timestamp;P1;durP1;ratioP1;P2;durP2;ratioP2
21927;SDS011;11128;51.096;17.190;2023-04-03T00:03:15;7.22;;;1.67;;
21927;SDS011;11128;51.096;17.190;2023-04-03T00:08:17;4.88;;;1.45;;
21927;SDS011;11128;51.096;17.190;2023-04-03T00:13:19;6.97;;;2.13;;
21927;SDS011;11128;51.096;17.190;2023-04-03T00:18:20;7.72;;;1.98;;
21927;SDS011;11128;51.096;17.190;2023-04-03T00:23:22;5.85;;;2.00;;
21927;SDS011;11128;51.096;17.190;2023-04-03T00:28:24;7.03;;;1.80;;
21927;SDS011;11128;51.096;17.190;2023-04-03T00:33:25;6.65;;;2.28;;
21927;SDS011;11128;51.096;17.190;2023-04-03T00:38:27;9.13;;;2.58;;
21927;SDS011;11128;51.096;17.190;2023-04-03T00:43:28;4.85;;;1.73;;
21927;SDS011;11128;51.096;17.190;2023-04-03T00:48:31;5.80;;;2.10;;
21927;SDS011;11128;51.096;17.190;2023-04-03T00:53:36;5.47;;;2.05;;
21927;SDS011;11128;51.096;17.190;2023-04-03T00:58:42;7.10;;;1.80;;
21927;SDS011;11128;51.096;17.190;2023-04-03T01:03:49;6.65;;;2.08;;
21927;SDS011;11128;51.096;17.190;2023-04-03T01:08:51;5.10;;;1.83;;
21927;SDS011;11128;51.096;17.190;2023-04-03T01:13:53;7.75;;;1.55;;
21927;SDS011;11128;51.096;17.190;2023-04-03T01:18:54;5.20;;;1.85;;
21927;SDS011;11128;51.096;17.190;2023-04-03T01:28:58;5.32;;;2.05;;
21927;SDS011;11128;51.096;17.190;2023-04-03T01:34:01;9.85;;;2.10;;
21927;SDS011;11128;51.096;17.190;2023-04-03T01:39:03;5.65;;;1.85;;
21927;SDS011;11128;51.096;17.190;2023-04-03T01:44:05;6.43;;;2.30;;
21927;SDS011;11128;51.096;17.190;2023-04-03T01:49:06;5.32;;;1.88;;
21927;SDS011;11128;51.096;17.190;2023-04-03T01:54:07;12.43;;;2.42;;
21927;SDS011;11128;51.096;17.190;2023-04-03T01:59:09;6.10;;;1.98;;
21927;SDS011;11128;51.096;17.190;2023-04-03T02:04:10;6.55;;;2.50;;
21927;SDS011;11128;51.096;17.190;2023-04-03T02:09:12;7.18;;;1.85;;
21927;SDS011;11128;51.096;17.190;2023-04-03T02:14:14;7.00;;;2.40;;
21927;SDS011;11128;51.096;17.190;2023-04-03T02:19:15;3.38;;;1.88;;
21927;SDS011;11128;51.096;17.190;2023-04-03T02:24:17;2.85;;;1.65;;
21927;SDS011;11128;51.096;17.190;2023-04-03T02:29:19;6.00;;;1.88;;
21927;SDS011;11128;51.096;17.190;2023-04-03T02:34:20;3.55;;;1.40;;
21927;SDS011;11128;51.096;17.190;2023-04-03T02:39:22;10.07;;;1.90;;
21927;SDS011;11128;51.096;17.190;2023-04-03T02:44:24;14.50;;;1.90;;
21927;SDS011;11128;51.096;17.190;2023-04-03T02:49:25;5.03;;;1.80;;
21927;SDS011;11128;51.096;17.190;2023-04-03T02:54:26;5.45;;;1.88;;
21927;SDS011;11128;51.096;17.190;2023-04-03T02:59:31;5.15;;;1.83;;
21927;SDS011;11128;51.096;17.190;2023-04-03T03:04:33;9.88;;;1.92;;
21927;SDS011;11128;51.096;17.190;2023-04-03T03:09:34;14.88;;;2.38;;
21927;SDS011;11128;51.096;17.190;2023-04-03T03:14:36;6.40;;;2.10;;
21927;SDS011;11128;51.096;17.190;2023-04-03T03:19:37;4.40;;;1.73;;
21927;SDS011;11128;51.096;17.190;2023-04-03T03:24:38;7.85;;;2.10;;
21927;SDS011;11128;51.096;17.190;2023-04-03T03:29:40;5.57;;;1.77;;
21927;SDS011;11128;51.096;17.190;2023-04-03T03:34:41;9.88;;;2.25;;
21927;SDS011;11128;51.096;17.190;2023-04-03T03:39:42;5.95;;;1.70;;
21927;SDS011;11128;51.096;17.190;2023-04-03T03:44:44;9.00;;;2.30;;
21927;SDS011;11128;51.096;17.190;2023-04-03T03:49:45;11.38;;;2.10;;
21927;SDS011;11128;51.096;17.190;2023-04-03T03:54:46;6.35;;;1.83;;
21927;SDS011;11128;51.096;17.190;2023-04-03T03:59:48;7.82;;;2.28;;
21927;SDS011;11128;51.096;17.190;2023-04-03T04:04:49;6.22;;;2.20;;
21927;SDS011;11128;51.096;17.190;2023-04-03T04:09:51;5.85;;;2.38;;
21927;SDS011;11128;51.096;17.190;2023-04-03T04:14:52;5.35;;;2.20;;
21927;SDS011;11128;51.096;17.190;2023-04-03T04:19:53;7.45;;;2.97;;
21927;SDS011;11128;51.096;17.190;2023-04-03T04:24:55;9.13;;;2.40;;
21927;SDS011;11128;51.096;17.190;2023-04-03T04:29:56;11.77;;;2.65;;
21927;SDS011;11128;51.096;17.190;2023-04-03T04:34:57;7.85;;;2.78;;
21927;SDS011;11128;51.096;17.190;2023-04-03T04:39:59;8.07;;;2.97;;
21927;SDS011;11128;51.096;17.190;2023-04-03T04:45:00;7.00;;;2.67;;
21927;SDS011;11128;51.096;17.190;2023-04-03T04:50:02;3.83;;;2.50;;
21927;SDS011;11128;51.096;17.190;2023-04-03T04:55:04;5.38;;;2.22;;
21927;SDS011;11128;51.096;17.190;2023-04-03T05:00:06;7.05;;;2.28;;
21927;SDS011;11128;51.096;17.190;2023-04-03T05:05:07;4.80;;;2.15;;
21927;SDS011;11128;51.096;17.190;2023-04-03T05:10:09;10.65;;;2.53;;
21927;SDS011;11128;51.096;17.190;2023-04-03T05:15:11;5.38;;;1.85;;
21927;SDS011;11128;51.096;17.190;2023-04-03T05:20:12;8.00;;;2.00;;
21927;SDS011;11128;51.096;17.190;2023-04-03T05:25:14;5.30;;;1.55;;
21927;SDS011;11128;51.096;17.190;2023-04-03T05:30:16;3.45;;;1.60;;
21927;SDS011;11128;51.096;17.190;2023-04-03T05:35:18;5.55;;;2.10;;
21927;SDS011;11128;51.096;17.190;2023-04-03T05:40:19;10.93;;;2.13;;
21927;SDS011;11128;51.096;17.190;2023-04-03T05:45:22;5.97;;;2.42;;
21927;SDS011;11128;51.096;17.190;2023-04-03T05:50:24;3.65;;;1.80;;
21927;SDS011;11128;51.096;17.190;2023-04-03T05:55:25;6.65;;;2.03;;
21927;SDS011;11128;51.096;17.190;2023-04-03T06:00:27;7.35;;;2.25;;
21927;SDS011;11128;51.096;17.190;2023-04-03T06:05:29;5.90;;;2.28;;
21927;SDS011;11128;51.096;17.190;2023-04-03T06:10:31;5.10;;;2.22;;
21927;SDS011;11128;51.096;17.190;2023-04-03T06:15:32;6.10;;;1.90;;
21927;SDS011;11128;51.096;17.190;2023-04-03T06:20:34;7.30;;;2.03;;
21927;SDS011;11128;51.096;17.190;2023-04-03T06:25:36;6.65;;;2.30;;
21927;SDS011;11128;51.096;17.190;2023-04-03T06:30:37;6.03;;;2.20;;
21927;SDS011;11128;51.096;17.190;2023-04-03T06:35:38;9.45;;;2.70;;
21927;SDS011;11128;51.096;17.190;2023-04-03T06:40:40;6.78;;;2.13;;
21927;SDS011;11128;51.096;17.190;2023-04-03T06:45:41;4.88;;;2.35;;
21927;SDS011;11128;51.096;17.190;2023-04-03T06:50:43;5.80;;;2.25;;
21927;SDS011;11128;51.096;17.190;2023-04-03T06:55:44;6.97;;;2.33;;
21927;SDS011;11128;51.096;17.190;2023-04-03T07:00:45;4.50;;;2.40;;
21927;SDS011;11128;51.096;17.190;2023-04-03T07:05:48;7.22;;;2.15;;
21927;SDS011;11128;51.096;17.190;2023-04-03T07:10:49;6.00;;;2.25;;
21927;SDS011;11128;51.096;17.190;2023-04-03T07:15:51;6.60;;;2.38;;
21927;SDS011;11128;51.096;17.190;2023-04-03T07:20:52;7.57;;;2.45;;
21927;SDS011;11128;51.096;17.190;2023-04-03T07:25:53;5.07;;;2.40;;
21927;SDS011;11128;51.096;17.190;2023-04-03T07:31:03;6.00;;;2.28;;
21927;SDS011;11128;51.096;17.190;2023-04-03T07:36:08;5.55;;;1.92;;
21927;SDS011;11128;51.096;17.190;2023-04-03T07:41:17;5.88;;;2.60;;
21927;SDS011;11128;51.096;17.190;2023-04-03T07:46:20;3.65;;;1.90;;
21927;SDS011;11128;51.096;17.190;2023-04-03T07:51:21;3.85;;;1.98;;
21927;SDS011;11128;51.096;17.190;2023-04-03T07:56:24;3.45;;;1.98;;
21927;SDS011;11128;51.096;17.190;2023-04-03T08:01:25;2.97;;;1.70;;
21927;SDS011;11128;51.096;17.190;2023-04-03T08:06:27;2.30;;;1.50;;
21927;SDS011;11128;51.096;17.190;2023-04-03T08:11:30;5.82;;;2.33;;
21927;SDS011;11128;51.096;17.190;2023-04-03T08:16:32;5.15;;;2.00;;
21927;SDS011;11128;51.096;17.190;2023-04-03T08:21:33;6.60;;;2.35;;
21927;SDS011;11128;51.096;17.190;2023-04-03T08:26:35;5.55;;;1.90;;
21927;SDS011;11128;51.096;17.190;2023-04-03T08:31:38;7.53;;;1.90;;
21927;SDS011;11128;51.096;17.190;2023-04-03T08:36:39;5.53;;;1.80;;
21927;SDS011;11128;51.096;17.190;2023-04-03T08:41:42;4.88;;;1.48;;
21927;SDS011;11128;51.096;17.190;2023-04-03T08:46:58;3.13;;;1.70;;
21927;SDS011;11128;51.096;17.190;2023-04-03T08:52:13;4.10;;;1.58;;
21927;SDS011;11128;51.096;17.190;2023-04-03T08:57:21;3.70;;;1.77;;
21927;SDS011;11128;51.096;17.190;2023-04-03T09:02:35;1.30;;;1.13;;
21927;SDS011;11128;51.096;17.190;2023-04-03T09:07:46;3.95;;;1.40;;
21927;SDS011;11128;51.096;17.190;2023-04-03T09:13:05;2.70;;;1.48;;
21927;SDS011;11128;51.096;17.190;2023-04-03T09:18:20;3.57;;;1.17;;
21927;SDS011;11128;51.096;17.190;2023-04-03T09:23:26;2.10;;;1.05;;
21927;SDS011;11128;51.096;17.190;2023-04-03T09:28:37;2.72;;;1.13;;
21927;SDS011;11128;51.096;17.190;2023-04-03T09:33:40;2.65;;;0.95;;
21927;SDS011;11128;51.096;17.190;2023-04-03T09:38:42;2.70;;;1.10;;
21927;SDS011;11128;51.096;17.190;2023-04-03T09:43:51;3.10;;;1.30;;
21927;SDS011;11128;51.096;17.190;2023-04-03T09:49:04;5.88;;;1.48;;
21927;SDS011;11128;51.096;17.190;2023-04-03T09:59:26;2.20;;;1.30;;
21927;SDS011;11128;51.096;17.190;2023-04-03T10:04:38;3.58;;;1.25;;
21927;SDS011;11128;51.096;17.190;2023-04-03T10:09:41;2.47;;;1.20;;
21927;SDS011;11128;51.096;17.190;2023-04-03T10:14:57;2.70;;;1.42;;
21927;SDS011;11128;51.096;17.190;2023-04-03T10:20:06;4.35;;;1.60;;
21927;SDS011;11128;51.096;17.190;2023-04-03T10:40:54;2.63;;;1.35;;
21927;SDS011;11128;51.096;17.190;2023-04-03T10:51:20;3.97;;;1.52;;
21927;SDS011;11128;51.096;17.190;2023-04-03T13:28:06;4.13;;;1.50;;
21927;SDS011;11128;51.096;17.190;2023-04-03T13:33:19;3.00;;;1.13;;
21927;SDS011;11128;51.096;17.190;2023-04-03T13:38:25;4.00;;;1.52;;
21927;SDS011;11128;51.096;17.190;2023-04-03T13:43:30;3.60;;;1.20;;
21927;SDS011;11128;51.096;17.190;2023-04-03T13:48:35;3.13;;;1.30;;
21927;SDS011;11128;51.096;17.190;2023-04-03T13:58:54;8.35;;;3.33;;
21927;SDS011;11128;51.096;17.190;2023-04-03T15:04:16;5.85;;;2.25;;
21927;SDS011;11128;51.096;17.190;2023-04-03T15:09:21;5.72;;;1.77;;
21927;SDS011;11128;51.096;17.190;2023-04-03T15:14:27;7.60;;;2.63;;
21927;SDS011;11128;51.096;17.190;2023-04-03T15:19:30;5.45;;;2.72;;
21927;SDS011;11128;51.096;17.190;2023-04-03T15:24:37;5.22;;;3.08;;
21927;SDS011;11128;51.096;17.190;2023-04-03T15:29:39;3.90;;;2.08;;
21927;SDS011;11128;51.096;17.190;2023-04-03T15:34:42;4.53;;;2.28;;
21927;SDS011;11128;51.096;17.190;2023-04-03T15:39:44;5.57;;;2.40;;
21927;SDS011;11128;51.096;17.190;2023-04-03T15:44:45;3.67;;;2.58;;
21927;SDS011;11128;51.096;17.190;2023-04-03T15:49:46;6.57;;;2.35;;
21927;SDS011;11128;51.096;17.190;2023-04-03T15:54:48;4.75;;;2.50;;
21927;SDS011;11128;51.096;17.190;2023-04-03T15:59:50;9.73;;;3.00;;
21927;SDS011;11128;51.096;17.190;2023-04-03T16:04:53;5.32;;;2.40;;
21927;SDS011;11128;51.096;17.190;2023-04-03T16:09:55;3.20;;;1.65;;
21927;SDS011;11128;51.096;17.190;2023-04-03T16:14:57;2.25;;;1.50;;
21927;SDS011;11128;51.096;17.190;2023-04-03T16:19:59;6.90;;;1.75;;
21927;SDS011;11128;51.096;17.190;2023-04-03T16:25:01;4.00;;;1.98;;
21927;SDS011;11128;51.096;17.190;2023-04-03T16:30:02;24.70;;;14.45;;
21927;SDS011;11128;51.096;17.190;2023-04-03T16:35:05;17.73;;;8.05;;
21927;SDS011;11128;51.096;17.190;2023-04-03T16:40:08;15.40;;;6.53;;
21927;SDS011;11128;51.096;17.190;2023-04-03T16:45:10;9.98;;;4.95;;
21927;SDS011;11128;51.096;17.190;2023-04-03T16:50:12;13.90;;;5.25;;
21927;SDS011;11128;51.096;17.190;2023-04-03T16:55:13;26.20;;;9.60;;
21927;SDS011;11128;51.096;17.190;2023-04-03T17:00:15;28.83;;;8.13;;
21927;SDS011;11128;51.096;17.190;2023-04-03T17:05:17;35.75;;;10.45;;
21927;SDS011;11128;51.096;17.190;2023-04-03T17:10:19;30.27;;;9.20;;
21927;SDS011;11128;51.096;17.190;2023-04-03T17:15:20;17.05;;;6.72;;
21927;SDS011;11128;51.096;17.190;2023-04-03T17:20:22;50.58;;;15.55;;
21927;SDS011;11128;51.096;17.190;2023-04-03T17:25:23;36.00;;;14.57;;
21927;SDS011;11128;51.096;17.190;2023-04-03T17:30:25;20.65;;;9.55;;
21927;SDS011;11128;51.096;17.190;2023-04-03T17:35:26;59.63;;;20.77;;
21927;SDS011;11128;51.096;17.190;2023-04-03T17:40:28;122.20;;;38.95;;
21927;SDS011;11128;51.096;17.190;2023-04-03T17:45:30;67.57;;;22.85;;
21927;SDS011;11128;51.096;17.190;2023-04-03T17:50:32;46.10;;;17.98;;
21927;SDS011;11128;51.096;17.190;2023-04-03T17:55:35;25.63;;;11.05;;
21927;SDS011;11128;51.096;17.190;2023-04-03T18:00:40;60.58;;;22.50;;
21927;SDS011;11128;51.096;17.190;2023-04-03T18:05:41;31.63;;;14.20;;
21927;SDS011;11128;51.096;17.190;2023-04-03T18:10:43;13.50;;;5.97;;
21927;SDS011;11128;51.096;17.190;2023-04-03T18:15:44;18.40;;;8.10;;
21927;SDS011;11128;51.096;17.190;2023-04-03T18:20:46;23.00;;;10.98;;
21927;SDS011;11128;51.096;17.190;2023-04-03T18:25:47;27.02;;;12.38;;
21927;SDS011;11128;51.096;17.190;2023-04-03T18:30:49;34.78;;;13.95;;
21927;SDS011;11128;51.096;17.190;2023-04-03T18:35:50;12.13;;;4.63;;
21927;SDS011;11128;51.096;17.190;2023-04-03T18:40:52;19.30;;;7.35;;
21927;SDS011;11128;51.096;17.190;2023-04-03T18:45:53;13.30;;;5.75;;
21927;SDS011;11128;51.096;17.190;2023-04-03T18:50:55;11.23;;;5.68;;
21927;SDS011;11128;51.096;17.190;2023-04-03T18:55:57;11.27;;;4.45;;
21927;SDS011;11128;51.096;17.190;2023-04-03T19:00:58;9.25;;;5.05;;
21927;SDS011;11128;51.096;17.190;2023-04-03T19:06:01;21.27;;;8.80;;
21927;SDS011;11128;51.096;17.190;2023-04-03T19:11:03;18.45;;;8.13;;
21927;SDS011;11128;51.096;17.190;2023-04-03T19:16:05;16.40;;;7.63;;
21927;SDS011;11128;51.096;17.190;2023-04-03T19:21:07;20.70;;;7.97;;
21927;SDS011;11128;51.096;17.190;2023-04-03T19:26:10;16.60;;;7.35;;
21927;SDS011;11128;51.096;17.190;2023-04-03T19:31:16;20.17;;;8.75;;
21927;SDS011;11128;51.096;17.190;2023-04-03T19:36:20;17.45;;;8.35;;
21927;SDS011;11128;51.096;17.190;2023-04-03T19:41:22;14.88;;;6.72;;
21927;SDS011;11128;51.096;17.190;2023-04-03T19:46:25;9.80;;;4.63;;
21927;SDS011;11128;51.096;17.190;2023-04-03T19:51:28;9.65;;;4.60;;
21927;SDS011;11128;51.096;17.190;2023-04-03T19:56:30;13.73;;;6.10;;
21927;SDS011;11128;51.096;17.190;2023-04-03T20:01:31;15.27;;;6.70;;
21927;SDS011;11128;51.096;17.190;2023-04-03T20:06:34;23.08;;;10.38;;
21927;SDS011;11128;51.096;17.190;2023-04-03T20:11:36;21.35;;;10.68;;
21927;SDS011;11128;51.096;17.190;2023-04-03T20:16:40;18.20;;;8.50;;
21927;SDS011;11128;51.096;17.190;2023-04-03T20:21:41;14.15;;;7.38;;
21927;SDS011;11128;51.096;17.190;2023-04-03T20:26:43;17.92;;;8.50;;
21927;SDS011;11128;51.096;17.190;2023-04-03T20:31:46;15.18;;;6.35;;
21927;SDS011;11128;51.096;17.190;2023-04-03T20:36:48;15.43;;;5.07;;
21927;SDS011;11128;51.096;17.190;2023-04-03T20:41:49;12.63;;;5.07;;
21927;SDS011;11128;51.096;17.190;2023-04-03T20:46:51;10.95;;;5.65;;
21927;SDS011;11128;51.096;17.190;2023-04-03T20:51:52;13.85;;;5.15;;
21927;SDS011;11128;51.096;17.190;2023-04-03T20:56:53;6.75;;;3.28;;
21927;SDS011;11128;51.096;17.190;2023-04-03T21:01:55;7.10;;;3.42;;
21927;SDS011;11128;51.096;17.190;2023-04-03T21:23:26;6.47;;;2.80;;
21927;SDS011;11128;51.096;17.190;2023-04-03T21:28:28;8.38;;;3.92;;
21927;SDS011;11128;51.096;17.190;2023-04-03T21:33:29;6.95;;;3.88;;
21927;SDS011;11128;51.096;17.190;2023-04-03T21:38:31;10.63;;;4.45;;
21927;SDS011;11128;51.096;17.190;2023-04-03T21:43:34;6.43;;;3.47;;
21927;SDS011;11128;51.096;17.190;2023-04-03T21:48:36;5.82;;;3.35;;
21927;SDS011;11128;51.096;17.190;2023-04-03T21:53:37;5.32;;;2.95;;
21927;SDS011;11128;51.096;17.190;2023-04-03T21:58:39;8.95;;;4.00;;
21927;SDS011;11128;51.096;17.190;2023-04-03T22:03:40;7.18;;;3.35;;
21927;SDS011;11128;51.096;17.190;2023-04-03T22:08:43;6.60;;;3.03;;
21927;SDS011;11128;51.096;17.190;2023-04-03T22:13:44;21.85;;;7.50;;
21927;SDS011;11128;51.096;17.190;2023-04-03T22:18:46;44.83;;;12.70;;
21927;SDS011;11128;51.096;17.190;2023-04-03T22:23:47;51.75;;;16.38;;
21927;SDS011;11128;51.096;17.190;2023-04-03T22:28:48;40.30;;;14.10;;
21927;SDS011;11128;51.096;17.190;2023-04-03T22:33:50;26.20;;;9.95;;
21927;SDS011;11128;51.096;17.190;2023-04-03T22:38:52;17.70;;;5.70;;
21927;SDS011;11128;51.096;17.190;2023-04-03T22:43:53;11.48;;;4.97;;
21927;SDS011;11128;51.096;17.190;2023-04-03T22:48:56;9.15;;;4.10;;
21927;SDS011;11128;51.096;17.190;2023-04-03T22:53:58;9.75;;;4.20;;
21927;SDS011;11128;51.096;17.190;2023-04-03T22:59:00;14.85;;;5.45;;
21927;SDS011;11128;51.096;17.190;2023-04-03T23:04:01;15.98;;;6.20;;
21927;SDS011;11128;51.096;17.190;2023-04-03T23:09:03;11.52;;;5.47;;
21927;SDS011;11128;51.096;17.190;2023-04-03T23:14:04;13.95;;;5.72;;
21927;SDS011;11128;51.096;17.190;2023-04-03T23:19:06;13.32;;;5.20;;
21927;SDS011;11128;51.096;17.190;2023-04-03T23:24:08;9.75;;;3.88;;
21927;SDS011;11128;51.096;17.190;2023-04-03T23:29:09;6.65;;;3.88;;
21927;SDS011;11128;51.096;17.190;2023-04-03T23:34:11;9.35;;;3.28;;
21927;SDS011;11128;51.096;17.190;2023-04-03T23:39:12;5.30;;;3.13;;
21927;SDS011;11128;51.096;17.190;2023-04-03T23:44:13;7.93;;;3.50;;
21927;SDS011;11128;51.096;17.190;2023-04-03T23:49:15;8.50;;;2.65;;
21927;SDS011;11128;51.096;17.190;2023-04-03T23:54:16;8.52;;;3.13;;
21927;SDS011;11128;51.096;17.190;2023-04-03T23:59:18;6.60;;;3.15;;
